Empire, MI

12:39 PM EDT on August 29, 2014 (GMT -0400)
Leelanau Coffee Roasting | Change Station
CLOSE
Current Station
Personal Weather Station
Location: Glen Arbor, MI
Elevation: 590 ft
Nearby Weather Stations

Elev 590 ft 44.90 °N, 86.01 °W | Updated 5 seconds ago

Rain
Rain
65.3 °F
Feels Like 65.3 °F
N
0.0
Wind Variable Wind from East
Gusts 0.0 mph

Today
High -- | Low -- °F
--% Chance of Precip.
Yesterday
High -- | Low -- °F
Precip. -- in
7:02 AM 8:26 PM
Waxing Crescent, 15% visible
Pressure 29.98 in
Visibility 10.0 miles
Clouds Scattered Clouds 2400 ft
Scattered Clouds 3500 ft
Mostly Cloudy 5000 ft
Dew Point 61 °F
Humidity 86%
Rainfall 0.98 in
Snow Depth Not available.
UV 4 out of 12
Pollen 6.30 out of 12
Ozone Good
PM2.5 Good
Flu Activity Not available.
METAR KFKS 291614Z AUTO 16007KT 10SM SCT024 SCT035 BKN050 21/17 A2998 RMK AO2 T02090172

More Conditions Fewer Conditions

Pressure 29.98 in
Visibility 10.0 miles
Clouds Scattered Clouds 2400 ft
Scattered Clouds 3500 ft
Mostly Cloudy 5000 ft
Dew Point 61 °F
Humidity 86%
Rainfall 0.98 in
Snow Depth Not available.
UV 4 out of 12
Pollen 6.30 out of 12
Ozone Good
PM2.5 Good
Flu Activity Not available.
METAR KFKS 291614Z AUTO 16007KT 10SM SCT024 SCT035 BKN050 21/17 A2998 RMK AO2 T02090172

More Conditions Fewer Conditions

Nowcast | as of 12:00 PM EDT on August 29, 2014

At 1 PM...widespread rain showers. Temperature 69. Southeast winds 12 mph. At 3 PM...numerous rain showers. Temperature 75. South winds 13 mph. At 5 PM...mostly cloudy. Scattered rain showers. Temperature 75. South winds 14 mph. At 7 PM...mostly cloudy. Scattered rain showers. Temperature 74. South winds 10 mph.

×

10-Day Weather Forecast

Almanac

Astronomy

Aug. 29, 2014 Rise Set
Actual Time 7:02 AM EDT 8:26 PM EDT
Civil Twilight 6:32 AM EDT 8:56 PM EDT
Nautical Twilight 5:55 AM EDT 9:33 PM EDT
Astronomical Twilight 5:16 AM EDT 10:12 PM EDT
Moon 11:03 AM EDT 10:11 PM EDT
Length of Visible Light 14h 24m
Length of Day
13h 23m
Tomorrow will be 2m 59s shorter.
Waxing Crescent, 15% of the Moon is Illuminated
Today
Waxing Crescent
Sep 2
First Quarter
Sep 8
Full
Sep 15
Last Quarter
Sep 24
New

Today's Extremes

State Highs State Lows

Community

WunderPhotos

Upload Photos

1,748,284 photos uploaded!

Nearby

Air Quality

  Air Quality AQ Index Pollutant
Yesterday Good
OZONE
Yesterday Good
PM2.5
Current Good
PM2.5
Current Good
OZONE
Friday Good
OZONE
Friday Good
PM2.5
Saturday Good
OZONE
Saturday Good
PM2.5
Sunday Good
OZONE
Sunday Good
PM2.5
Monday Good
OZONE
Monday Good
PM2.5
Tuesday Good
OZONE
Tuesday Good
PM2.5

Snow Depth

Station Depth Elevation
No new snow has been reported.

Earthquake Activity

City Distance Mag. Time & Date
No recent earthquake activity has been reported nearby.
Minimum magnitude displayed is 2.5.

Coastal Water Temperatures

Place Temperature
No Stations Reporting

Nearby Weather Stations